createdAt,value
2023-01-11T00:00:03.792Z,4.22
2023-01-11T00:01:03.802Z,4.24
2023-01-11T00:02:03.815Z,4.23
2023-01-11T00:03:03.780Z,4.26
2023-01-11T00:04:03.741Z,4.24
2023-01-11T00:05:03.775Z,4.24
2023-01-11T00:06:03.729Z,4.26
2023-01-11T00:07:03.744Z,4.29
2023-01-11T00:08:03.694Z,4.27
2023-01-11T00:09:03.699Z,4.27
2023-01-11T00:10:03.682Z,4.26
2023-01-11T00:11:03.677Z,4.27
2023-01-11T00:12:03.646Z,4.27
2023-01-11T00:13:03.699Z,4.29
2023-01-11T00:14:03.644Z,4.29
2023-01-11T00:15:03.635Z,4.29
2023-01-11T00:16:03.662Z,4.30
2023-01-11T00:17:03.621Z,4.33
2023-01-11T00:18:03.604Z,4.34
2023-01-11T00:19:03.591Z,4.36
2023-01-11T00:20:03.602Z,4.36
2023-01-11T00:21:03.595Z,4.37
2023-01-11T00:22:03.560Z,4.37
2023-01-11T00:23:03.558Z,4.37
2023-01-11T00:24:03.525Z,4.40
2023-01-11T00:25:03.550Z,4.41
2023-01-11T00:26:03.524Z,4.40
2023-01-11T00:27:03.507Z,4.41
2023-01-11T00:28:03.501Z,4.41
2023-01-11T00:29:03.502Z,4.40
2023-01-11T00:30:03.460Z,4.40
2023-01-11T00:31:03.528Z,4.37
2023-01-11T00:32:03.447Z,4.37
2023-01-11T00:33:03.458Z,4.37
2023-01-11T00:34:03.425Z,4.37
2023-01-11T00:35:03.508Z,4.40
2023-01-11T00:36:03.397Z,4.40
2023-01-11T00:37:03.417Z,4.41
2023-01-11T00:38:03.381Z,4.40
2023-01-11T00:39:03.399Z,4.41
2023-01-11T00:40:03.355Z,4.40
2023-01-11T00:41:03.373Z,4.40
2023-01-11T00:42:03.333Z,4.40
2023-01-11T00:43:03.360Z,4.37
2023-01-11T00:44:03.313Z,4.36
2023-01-11T00:45:03.335Z,4.34
2023-01-11T00:46:03.339Z,4.36
2023-01-11T00:47:03.299Z,4.34
2023-01-11T00:48:03.271Z,4.34
2023-01-11T00:49:03.299Z,4.32
2023-01-11T00:50:03.273Z,4.30
2023-01-11T00:51:03.251Z,4.27
2023-01-11T00:52:03.225Z,4.26
2023-01-11T00:53:03.239Z,4.26
2023-01-11T00:54:03.207Z,4.26
2023-01-11T00:55:03.226Z,4.24
2023-01-11T00:56:03.200Z,4.23
2023-01-11T00:57:03.223Z,4.22
2023-01-11T00:58:03.171Z,4.22
2023-01-11T00:59:03.184Z,4.22
2023-01-11T01:00:03.146Z,4.20
2023-01-11T01:01:03.218Z,4.20
2023-01-11T01:02:03.130Z,4.18
2023-01-11T01:03:03.141Z,4.20
2023-01-11T01:04:03.115Z,4.18
2023-01-11T01:05:03.118Z,4.16
2023-01-11T01:06:03.115Z,4.15
2023-01-11T01:07:03.083Z,4.14
2023-01-11T01:08:03.052Z,4.11
2023-01-11T01:09:03.066Z,4.09
2023-01-11T01:10:03.037Z,4.09
2023-01-11T01:11:03.088Z,4.06
2023-01-11T01:12:03.018Z,4.04
2023-01-11T01:13:03.064Z,3.98
2023-01-11T01:14:02.992Z,3.94
2023-01-11T01:15:03.021Z,3.96
2023-01-11T01:16:03.030Z,3.94
2023-01-11T01:17:02.990Z,3.88
2023-01-11T01:18:02.957Z,3.87
2023-01-11T01:19:02.967Z,3.83
2023-01-11T01:20:02.927Z,3.80
2023-01-11T01:21:02.957Z,3.83
2023-01-11T01:22:02.908Z,3.83
2023-01-11T01:23:02.918Z,3.83
2023-01-11T01:24:02.889Z,3.79
2023-01-11T01:25:02.906Z,3.79
2023-01-11T01:26:02.867Z,3.79
2023-01-11T01:27:02.889Z,3.79
2023-01-11T01:28:02.855Z,3.79
2023-01-11T01:29:02.873Z,3.80
2023-01-11T01:30:02.827Z,3.79
2023-01-11T01:31:02.918Z,3.80
2023-01-11T01:32:02.820Z,3.78
2023-01-11T01:33:02.812Z,3.79
2023-01-11T01:34:02.782Z,3.78
2023-01-11T01:35:02.805Z,3.76
2023-01-11T01:36:02.768Z,3.79
2023-01-11T01:37:02.791Z,3.78
2023-01-11T01:38:02.743Z,3.78
2023-01-11T01:39:02.750Z,3.79
2023-01-11T01:40:02.720Z,3.79
2023-01-11T01:41:02.730Z,3.80
2023-01-11T01:42:02.715Z,3.83
2023-01-11T01:43:02.700Z,3.80
2023-01-11T01:44:02.680Z,3.84
2023-01-11T01:45:02.680Z,3.86
2023-01-11T01:46:02.689Z,3.87
2023-01-11T01:47:02.669Z,3.88
2023-01-11T01:48:02.653Z,3.90
2023-01-11T01:49:02.654Z,3.90
2023-01-11T01:50:02.626Z,3.91
2023-01-11T01:51:02.641Z,3.93
2023-01-11T01:52:02.595Z,3.93
2023-01-11T01:53:02.650Z,3.93
2023-01-11T01:54:02.568Z,3.94
2023-01-11T01:55:02.599Z,3.94
2023-01-11T01:56:02.571Z,3.93
2023-01-11T01:57:02.592Z,3.93
2023-01-11T01:58:02.525Z,3.94
2023-01-11T01:59:02.543Z,3.94
2023-01-11T02:00:02.541Z,3.96
2023-01-11T02:01:02.521Z,3.97
2023-01-11T02:02:02.590Z,3.97
2023-01-11T02:03:02.592Z,3.97
2023-01-11T02:04:02.468Z,3.98
2023-01-11T02:05:02.475Z,3.96
2023-01-11T02:06:02.457Z,3.97
2023-01-11T02:07:02.468Z,3.98
2023-01-11T02:08:02.424Z,4.02
2023-01-11T02:09:02.441Z,4.04
2023-01-11T02:10:02.407Z,4.05
2023-01-11T02:11:02.417Z,4.08
2023-01-11T02:12:02.384Z,4.08
2023-01-11T02:13:02.399Z,4.08
2023-01-11T02:14:02.394Z,4.08
2023-01-11T02:15:02.370Z,4.08
2023-01-11T02:16:02.410Z,4.06
2023-01-11T02:17:02.347Z,4.06
2023-01-11T02:18:02.331Z,4.06
2023-01-11T02:19:02.346Z,4.08
2023-01-11T02:20:02.321Z,4.05
2023-01-11T02:21:02.328Z,4.05
2023-01-11T02:22:02.285Z,4.06
2023-01-11T02:23:02.278Z,4.05
2023-01-11T02:24:02.284Z,4.04
2023-01-11T02:25:02.268Z,4.06
2023-01-11T02:26:02.248Z,4.06
2023-01-11T02:27:02.256Z,4.08
2023-01-11T02:28:02.217Z,4.08
2023-01-11T02:29:02.237Z,4.09
2023-01-11T02:30:02.210Z,4.09
2023-01-11T02:31:02.285Z,4.09
2023-01-11T02:32:02.188Z,4.09
2023-01-11T02:33:02.187Z,4.11
2023-01-11T02:34:02.173Z,4.12
2023-01-11T02:35:02.154Z,4.09
2023-01-11T02:36:02.130Z,4.11
2023-01-11T02:37:02.134Z,4.11
2023-01-11T02:38:02.110Z,4.11
2023-01-11T02:39:02.134Z,4.11
2023-01-11T02:40:02.095Z,4.11
2023-01-11T02:41:02.093Z,4.09
2023-01-11T02:42:02.075Z,4.09
2023-01-11T02:43:02.062Z,4.09
2023-01-11T02:44:02.065Z,4.09
2023-01-11T02:45:02.051Z,4.09
2023-01-11T02:46:02.053Z,4.09
2023-01-11T02:47:02.021Z,4.11
2023-01-11T02:48:02.019Z,4.08
2023-01-11T02:49:01.994Z,4.09
2023-01-11T02:50:02.001Z,4.08
2023-01-11T02:51:01.993Z,4.08
2023-01-11T02:52:01.993Z,4.11
2023-01-11T02:53:01.952Z,4.09
2023-01-11T02:54:01.982Z,4.08
2023-01-11T02:55:01.926Z,4.06
2023-01-11T02:56:01.958Z,4.05
2023-01-11T02:57:01.907Z,4.06
2023-01-11T02:58:01.938Z,4.06
2023-01-11T02:59:01.898Z,4.05
2023-01-11T03:00:01.889Z,4.05
2023-01-11T03:01:01.872Z,4.04
2023-01-11T03:02:01.897Z,4.05
2023-01-11T03:03:01.928Z,4.05
2023-01-11T03:04:01.879Z,4.06
2023-01-11T03:05:01.825Z,4.05
2023-01-11T03:06:01.831Z,4.06
2023-01-11T03:07:01.842Z,4.09
2023-01-11T03:08:01.834Z,4.09
2023-01-11T03:09:01.781Z,4.11
2023-01-11T03:10:01.814Z,4.11
2023-01-11T03:11:01.764Z,4.14
2023-01-11T03:12:01.780Z,4.14
2023-01-11T03:13:01.748Z,4.15
2023-01-11T03:14:01.766Z,4.16
2023-01-11T03:15:01.721Z,4.20
2023-01-11T03:16:01.793Z,4.16
2023-01-11T03:17:01.723Z,4.22
2023-01-11T03:18:01.724Z,4.22
2023-01-11T03:19:01.689Z,4.22
2023-01-11T03:20:01.731Z,4.23
2023-01-11T03:21:01.699Z,4.24
2023-01-11T03:22:01.696Z,4.23
2023-01-11T03:23:01.640Z,4.24
2023-01-11T03:24:01.651Z,4.24
2023-01-11T03:25:01.613Z,4.24
2023-01-11T03:26:01.642Z,4.27
2023-01-11T03:27:01.599Z,4.27
2023-01-11T03:28:01.598Z,4.27
2023-01-11T03:29:01.577Z,4.29
2023-01-11T03:30:01.596Z,4.29
2023-01-11T03:31:01.602Z,4.29
2023-01-11T03:32:01.575Z,4.32
2023-01-11T03:33:01.541Z,4.32
2023-01-11T03:34:01.542Z,4.33
2023-01-11T03:35:01.510Z,4.33
2023-01-11T03:36:01.538Z,4.34
2023-01-11T03:37:01.502Z,4.36
2023-01-11T03:38:01.491Z,4.36
2023-01-11T03:39:01.484Z,4.36
2023-01-11T03:40:01.483Z,4.37
2023-01-11T03:41:01.453Z,4.37
2023-01-11T03:42:01.469Z,4.40
2023-01-11T03:43:01.443Z,4.41
2023-01-11T03:44:01.449Z,4.41
2023-01-11T03:45:01.401Z,4.44
2023-01-11T03:46:01.420Z,4.40
2023-01-11T03:47:01.422Z,4.42
2023-01-11T03:48:01.384Z,4.44
2023-01-11T03:49:01.376Z,4.47
2023-01-11T03:50:01.435Z,4.44
2023-01-11T03:51:01.337Z,4.45
2023-01-11T03:52:01.373Z,4.44
2023-01-11T03:53:01.335Z,4.44
2023-01-11T03:54:01.343Z,4.45
2023-01-11T03:55:01.302Z,4.45
2023-01-11T03:56:01.316Z,4.45
2023-01-11T03:57:01.274Z,4.47
2023-01-11T03:58:01.297Z,4.48
2023-01-11T03:59:01.255Z,4.50
2023-01-11T04:00:01.269Z,4.50
2023-01-11T04:01:01.256Z,4.50
2023-01-11T04:02:01.238Z,4.52
2023-01-11T04:03:01.236Z,4.54
2023-01-11T04:04:01.247Z,4.55
2023-01-11T04:05:01.193Z,4.55
2023-01-11T04:06:01.198Z,4.55
2023-01-11T04:07:01.227Z,4.55
2023-01-11T04:08:01.193Z,4.58
2023-01-11T04:09:01.152Z,4.59
2023-01-11T04:10:01.154Z,4.60
2023-01-11T04:11:01.128Z,4.62
2023-01-11T04:12:01.145Z,4.63
2023-01-11T04:13:01.118Z,4.63
2023-01-11T04:14:01.134Z,4.65
2023-01-11T04:15:01.097Z,4.67
2023-01-11T04:16:01.178Z,4.67
2023-01-11T04:17:01.070Z,4.69
2023-01-11T04:18:01.069Z,4.70
2023-01-11T04:19:01.039Z,4.72
2023-01-11T04:20:01.062Z,4.73
2023-01-11T04:21:01.022Z,4.75
2023-01-11T04:22:01.032Z,4.75
2023-01-11T04:23:01.003Z,4.77
2023-01-11T04:24:01.021Z,4.75
2023-01-11T04:25:00.982Z,4.77
2023-01-11T04:26:00.997Z,4.78
2023-01-11T04:27:00.972Z,4.77
2023-01-11T04:28:00.990Z,4.78
2023-01-11T04:29:00.937Z,4.77
2023-01-11T04:30:00.959Z,4.77
2023-01-11T04:31:00.913Z,4.77
2023-01-11T04:32:00.947Z,4.77
2023-01-11T04:33:00.900Z,4.77
2023-01-11T04:34:00.921Z,4.77
2023-01-11T04:35:00.875Z,4.78
2023-01-11T04:36:00.893Z,4.77
2023-01-11T04:37:00.856Z,4.78
2023-01-11T04:38:00.855Z,4.80
2023-01-11T04:39:00.840Z,4.80
2023-01-11T04:40:00.864Z,4.80
2023-01-11T04:41:00.814Z,4.80
2023-01-11T04:42:00.835Z,4.78
2023-01-11T04:43:00.788Z,4.77
2023-01-11T04:44:00.808Z,4.77
2023-01-11T04:45:00.772Z,4.77
2023-01-11T04:46:00.838Z,4.77
2023-01-11T04:47:00.745Z,4.77
2023-01-11T04:48:00.749Z,4.77
2023-01-11T04:49:00.726Z,4.78
2023-01-11T04:50:00.729Z,4.78
2023-01-11T04:51:00.714Z,4.80
2023-01-11T04:52:00.719Z,4.78
2023-01-11T04:53:00.725Z,4.80
2023-01-11T04:54:00.698Z,4.82
2023-01-11T04:55:00.667Z,4.84
2023-01-11T04:56:00.680Z,4.82
2023-01-11T04:57:00.640Z,4.84
2023-01-11T04:58:00.656Z,4.84
2023-01-11T04:59:00.625Z,4.84
2023-01-11T05:00:00.631Z,4.85
2023-01-11T05:01:00.639Z,4.84
2023-01-11T05:02:00.627Z,4.86
2023-01-11T05:03:00.576Z,4.88
2023-01-11T05:04:00.644Z,4.89
2023-01-11T05:05:00.554Z,4.91
2023-01-11T05:06:00.602Z,4.89
2023-01-11T05:07:00.607Z,4.89
2023-01-11T05:08:00.539Z,4.89
2023-01-11T05:09:00.512Z,4.89
2023-01-11T05:10:00.531Z,4.92
2023-01-11T05:11:00.503Z,4.91
2023-01-11T05:12:00.519Z,4.92
2023-01-11T05:13:00.471Z,4.92
2023-01-11T05:14:00.479Z,4.94
2023-01-11T05:15:00.473Z,4.92
2023-01-11T05:16:00.482Z,4.96
2023-01-11T05:17:00.445Z,4.99
2023-01-11T05:18:00.458Z,4.97
2023-01-11T05:19:00.410Z,4.99
2023-01-11T05:20:00.429Z,4.99
2023-01-11T05:21:00.386Z,4.99
2023-01-11T05:22:00.404Z,5.00
2023-01-11T05:23:00.366Z,5.02
2023-01-11T05:24:00.393Z,5.02
2023-01-11T05:25:00.356Z,5.03
2023-01-11T05:26:00.347Z,5.03
2023-01-11T05:27:00.321Z,5.03
2023-01-11T05:28:00.325Z,5.03
2023-01-11T05:29:00.301Z,5.06
2023-01-11T05:30:00.313Z,5.04
2023-01-11T05:31:00.288Z,5.06
2023-01-11T05:32:00.363Z,5.06
2023-01-11T05:33:00.259Z,5.06
2023-01-11T05:34:00.269Z,5.06
2023-01-11T05:35:00.257Z,5.07
2023-01-11T05:36:00.259Z,5.07
2023-01-11T05:37:00.215Z,5.07
2023-01-11T05:38:00.244Z,5.06
2023-01-11T05:39:00.193Z,5.09
2023-01-11T05:40:00.198Z,5.07
2023-01-11T05:41:00.171Z,5.09
2023-01-11T05:42:00.196Z,5.07
2023-01-11T05:43:00.156Z,5.09
2023-01-11T05:44:00.166Z,5.09
2023-01-11T05:45:00.183Z,5.09
2023-01-11T05:46:00.242Z,5.10
2023-01-11T05:47:00.116Z,5.12
2023-01-11T05:48:00.137Z,5.12
2023-01-11T05:49:00.126Z,5.13
2023-01-11T05:50:00.108Z,5.15
2023-01-11T05:51:01.526Z,5.15
2023-01-11T05:52:00.087Z,5.15
2023-01-11T05:53:00.047Z,5.17
2023-01-11T05:54:00.070Z,5.18
2023-01-11T05:55:00.033Z,5.18
2023-01-11T05:56:00.029Z,5.21
2023-01-11T05:56:59.997Z,5.22
2023-01-11T05:58:00.039Z,5.21
2023-01-11T05:58:59.988Z,5.22
2023-01-11T05:59:59.982Z,5.24
2023-01-11T06:00:59.960Z,5.25
2023-01-11T06:02:00.045Z,5.24
2023-01-11T06:03:00.098Z,5.25
2023-01-11T06:03:59.941Z,5.27
2023-01-11T06:04:59.920Z,5.27
2023-01-11T06:05:59.941Z,5.30
2023-01-11T06:06:59.987Z,5.31
2023-01-11T06:07:59.921Z,5.31
2023-01-11T06:08:59.873Z,5.35
2023-01-11T06:09:59.900Z,5.36
2023-01-11T06:11:00.263Z,5.38
2023-01-11T06:11:59.868Z,5.38
2023-01-11T06:12:59.829Z,5.40
2023-01-11T06:13:59.851Z,5.38
2023-01-11T06:14:59.816Z,5.39
2023-01-11T06:15:59.828Z,5.39
2023-01-11T06:16:59.834Z,5.40
2023-01-11T06:17:59.793Z,5.43
2023-01-11T06:18:59.768Z,5.45
2023-01-11T06:19:59.770Z,5.43
2023-01-11T06:20:59.749Z,5.45
2023-01-11T06:21:59.775Z,5.43
2023-01-11T06:22:59.724Z,5.48
2023-01-11T06:23:59.728Z,5.46
2023-01-11T06:24:59.720Z,5.48
2023-01-11T06:25:59.721Z,5.48
2023-01-11T06:26:59.692Z,5.49
2023-01-11T06:27:59.696Z,5.51
2023-01-11T06:28:59.656Z,5.51
2023-01-11T06:29:59.667Z,5.53
2023-01-11T06:30:59.707Z,5.56
2023-01-11T06:31:59.645Z,5.54
2023-01-11T06:32:59.623Z,5.56
2023-01-11T06:33:59.622Z,5.57
2023-01-11T06:34:59.598Z,5.56
2023-01-11T06:35:59.613Z,5.58
2023-01-11T06:36:59.592Z,5.60
2023-01-11T06:37:59.589Z,5.58
2023-01-11T06:38:59.556Z,5.60
2023-01-11T06:39:59.570Z,5.60
2023-01-11T06:40:59.527Z,5.63
2023-01-11T06:41:59.670Z,5.64
2023-01-11T06:42:59.526Z,5.65
2023-01-11T06:43:59.511Z,5.65
2023-01-11T06:44:59.443Z,5.67
2023-01-11T06:45:59.482Z,5.67
2023-01-11T06:46:59.412Z,5.68
2023-01-11T06:47:59.531Z,5.68
2023-01-11T06:48:59.457Z,5.71
2023-01-11T06:49:59.471Z,5.68
2023-01-11T06:50:59.427Z,5.68
2023-01-11T06:51:59.441Z,5.68
2023-01-11T06:52:59.427Z,5.67
2023-01-11T06:53:59.385Z,5.72
2023-01-11T06:54:59.324Z,5.71
2023-01-11T06:55:59.347Z,5.71
2023-01-11T06:56:59.369Z,5.71
2023-01-11T06:57:59.381Z,5.68
2023-01-11T06:58:59.343Z,5.71
2023-01-11T06:59:59.265Z,5.71
2023-01-11T07:00:59.339Z,5.68
2023-01-11T07:01:59.248Z,5.71
2023-01-11T07:02:59.262Z,5.72
2023-01-11T07:03:59.226Z,5.72
2023-01-11T07:04:59.336Z,5.74
2023-01-11T07:05:59.209Z,5.74
2023-01-11T07:06:59.237Z,5.75
2023-01-11T07:07:59.187Z,5.72
2023-01-11T07:08:59.201Z,5.75
2023-01-11T07:09:59.165Z,5.75
2023-01-11T07:10:59.253Z,5.76
2023-01-11T07:11:59.146Z,5.76
2023-01-11T07:12:59.161Z,5.79
2023-01-11T07:13:59.141Z,5.79
2023-01-11T07:14:59.127Z,5.79
2023-01-11T07:15:59.151Z,5.81
2023-01-11T07:16:59.118Z,5.81
2023-01-11T07:17:59.084Z,5.82
2023-01-11T07:18:59.085Z,5.83
2023-01-11T07:19:59.064Z,5.83
2023-01-11T07:20:59.068Z,5.85
2023-01-11T07:21:59.045Z,5.86
2023-01-11T07:22:59.047Z,5.85
2023-01-11T07:23:59.031Z,5.86
2023-01-11T07:24:59.024Z,5.89
2023-01-11T07:25:59.038Z,5.90
2023-01-11T07:26:59.010Z,5.91
2023-01-11T07:27:58.980Z,5.93
2023-01-11T07:28:58.977Z,5.93
2023-01-11T07:29:58.967Z,5.94
2023-01-11T07:30:59.990Z,5.96
2023-01-11T07:31:58.937Z,5.96
2023-01-11T07:32:58.948Z,5.97
2023-01-11T07:33:58.908Z,5.97
2023-01-11T07:34:58.923Z,5.99
2023-01-11T07:35:58.893Z,6.00
2023-01-11T07:36:58.903Z,6.00
2023-01-11T07:37:58.862Z,6.01
2023-01-11T07:38:58.896Z,6.03
2023-01-11T07:39:58.848Z,6.04
2023-01-11T07:40:58.857Z,6.04
2023-01-11T07:41:58.821Z,6.06
2023-01-11T07:42:58.849Z,6.06
2023-01-11T07:43:58.804Z,6.08
2023-01-11T07:44:58.806Z,6.08
2023-01-11T07:45:58.938Z,6.11
2023-01-11T07:46:58.834Z,6.11
2023-01-11T07:47:58.762Z,6.14
2023-01-11T07:48:58.776Z,6.14
2023-01-11T07:49:58.736Z,6.14
2023-01-11T07:50:58.739Z,6.17
2023-01-11T07:51:58.719Z,6.18
2023-01-11T07:52:58.744Z,6.19
2023-01-11T07:53:58.691Z,6.22
2023-01-11T07:54:58.717Z,6.22
2023-01-11T07:55:58.688Z,6.25
2023-01-11T07:56:58.698Z,6.28
2023-01-11T07:57:58.649Z,6.30
2023-01-11T07:58:58.700Z,6.30
2023-01-11T07:59:58.637Z,6.30
2023-01-11T08:00:58.631Z,6.33
2023-01-11T08:01:58.621Z,6.37
2023-01-11T08:02:58.736Z,6.37
2023-01-11T08:03:58.588Z,6.38
2023-01-11T08:04:58.612Z,6.41
2023-01-11T08:05:58.566Z,6.43
2023-01-11T08:06:58.581Z,6.43
2023-01-11T08:07:58.557Z,6.46
2023-01-11T08:08:58.573Z,6.44
2023-01-11T08:09:58.522Z,6.46
2023-01-11T08:10:58.568Z,6.48
2023-01-11T08:11:58.505Z,6.51
2023-01-11T08:12:58.543Z,6.52
2023-01-11T08:13:58.490Z,6.52
2023-01-11T08:14:58.494Z,6.55
2023-01-11T08:15:58.548Z,6.56
2023-01-11T08:16:58.477Z,6.58
2023-01-11T08:17:58.456Z,6.59
2023-01-11T08:18:58.460Z,6.58
2023-01-11T08:19:58.488Z,6.62
2023-01-11T08:20:58.420Z,6.64
2023-01-11T08:21:58.394Z,6.66
2023-01-11T08:22:58.424Z,6.66
2023-01-11T08:23:58.375Z,6.69
2023-01-11T08:24:58.384Z,6.67
2023-01-11T08:25:58.350Z,6.67
2023-01-11T08:26:58.383Z,6.70
2023-01-11T08:27:58.339Z,6.71
2023-01-11T08:28:58.330Z,6.71
2023-01-11T08:29:58.305Z,6.73
2023-01-11T08:30:58.406Z,6.71
2023-01-11T08:31:58.307Z,6.74
2023-01-11T08:32:58.287Z,6.74
2023-01-11T08:33:58.284Z,6.76
2023-01-11T08:34:58.264Z,6.76
2023-01-11T08:35:58.245Z,6.80
2023-01-11T08:36:58.256Z,6.84
2023-01-11T08:37:58.225Z,6.87
2023-01-11T08:38:58.258Z,6.88
2023-01-11T08:39:58.214Z,6.91
2023-01-11T08:40:58.224Z,6.94
2023-01-11T08:41:58.182Z,6.97
2023-01-11T08:42:58.190Z,6.99
2023-01-11T08:43:58.171Z,7.03
2023-01-11T08:44:58.173Z,7.07
2023-01-11T08:45:58.139Z,7.10
2023-01-11T08:46:58.154Z,7.13
2023-01-11T08:47:58.128Z,7.16
2023-01-11T08:48:58.149Z,7.20
2023-01-11T08:49:58.122Z,7.21
2023-01-11T08:50:58.101Z,7.23
2023-01-11T08:51:58.084Z,7.25
2023-01-11T08:52:58.094Z,7.28
2023-01-11T08:53:58.057Z,7.28
2023-01-11T08:54:58.063Z,7.32
2023-01-11T08:55:58.039Z,7.32
2023-01-11T08:56:58.036Z,7.32
2023-01-11T08:57:58.005Z,7.32
2023-01-11T08:58:58.024Z,7.34
2023-01-11T08:59:57.982Z,7.35
2023-01-11T09:00:57.997Z,7.35
2023-01-11T09:01:58.004Z,7.37
2023-01-11T09:02:58.034Z,7.35
2023-01-11T09:03:57.939Z,7.34
2023-01-11T09:04:57.947Z,7.37
2023-01-11T09:05:57.936Z,7.35
2023-01-11T09:06:57.926Z,7.37
2023-01-11T09:07:57.898Z,7.37
2023-01-11T09:08:57.916Z,7.39
2023-01-11T09:09:57.880Z,7.40
2023-01-11T09:10:57.908Z,7.39
2023-01-11T09:11:57.877Z,7.40
2023-01-11T09:12:57.861Z,7.40
2023-01-11T09:13:57.843Z,7.42
2023-01-11T09:14:57.845Z,7.43
2023-01-11T09:15:57.901Z,7.45
2023-01-11T09:16:57.836Z,7.46
2023-01-11T09:17:57.795Z,7.48
2023-01-11T09:18:57.798Z,7.49
2023-01-11T09:19:57.769Z,7.52
2023-01-11T09:20:57.789Z,7.52
2023-01-11T09:21:57.756Z,7.55
2023-01-11T09:22:57.765Z,7.58
2023-01-11T09:23:57.735Z,7.60
2023-01-11T09:24:57.745Z,7.61
2023-01-11T09:25:57.713Z,7.60
2023-01-11T09:26:57.744Z,7.64
2023-01-11T09:27:57.726Z,7.68
2023-01-11T09:28:57.751Z,7.68
2023-01-11T09:29:57.662Z,7.71
2023-01-11T09:30:57.720Z,7.77
2023-01-11T09:31:57.664Z,7.80
2023-01-11T09:32:57.682Z,7.83
2023-01-11T09:33:57.620Z,7.82
2023-01-11T09:34:57.635Z,7.86
2023-01-11T09:35:57.599Z,7.86
2023-01-11T09:36:57.632Z,7.92
2023-01-11T09:37:57.604Z,7.90
2023-01-11T09:38:57.653Z,7.95
2023-01-11T09:39:57.559Z,7.93
2023-01-11T09:40:57.575Z,7.97
2023-01-11T09:41:57.529Z,7.97
2023-01-11T09:42:57.555Z,7.95
2023-01-11T09:43:57.525Z,7.97
2023-01-11T09:44:57.541Z,7.98
2023-01-11T09:45:57.487Z,8.01
2023-01-11T09:46:57.540Z,8.04
2023-01-11T09:47:57.466Z,8.05
2023-01-11T09:48:57.475Z,8.08
2023-01-11T09:49:57.459Z,8.10
2023-01-11T09:50:57.463Z,8.12
2023-01-11T09:51:59.793Z,8.18
2023-01-11T09:52:57.431Z,8.20
2023-01-11T09:53:57.405Z,8.23
2023-01-11T09:54:57.427Z,8.23
2023-01-11T09:55:57.402Z,8.25
2023-01-11T09:56:57.399Z,8.28
2023-01-11T09:57:57.359Z,8.29
2023-01-11T09:58:57.388Z,8.29
2023-01-11T09:59:57.349Z,8.33
2023-01-11T10:00:59.579Z,8.33
2023-01-11T10:01:57.320Z,8.37
2023-01-11T10:02:57.328Z,8.37
2023-01-11T10:03:57.308Z,8.41
2023-01-11T10:04:57.367Z,8.43
2023-01-11T10:05:57.290Z,8.44
2023-01-11T10:06:57.292Z,8.47
2023-01-11T10:18:23.604Z,8.50
2023-01-11T10:19:05.843Z,8.62
2023-01-11T10:19:37.415Z,8.68
2023-01-11T10:19:52.518Z,8.68
2023-01-11T10:20:52.476Z,8.71
2023-01-11T10:21:52.441Z,8.76
2023-01-11T10:22:52.458Z,8.79
2023-01-11T10:23:52.422Z,8.81
2023-01-11T10:24:52.461Z,8.84
2023-01-11T10:25:52.421Z,8.89
2023-01-11T10:26:52.510Z,8.91
2023-01-11T10:27:52.401Z,8.92
2023-01-11T10:28:52.389Z,8.96
2023-01-11T10:29:52.372Z,8.96
2023-01-11T10:30:52.386Z,8.99
2023-01-11T10:31:52.394Z,9.04
2023-01-11T10:32:52.344Z,9.04
2023-01-11T10:33:52.391Z,9.08
2023-01-11T10:34:52.336Z,9.10
2023-01-11T10:35:52.309Z,9.13
2023-01-11T10:36:52.309Z,9.17
2023-01-11T10:37:52.278Z,9.17
2023-01-11T10:38:52.329Z,9.20
2023-01-11T10:39:52.253Z,9.21
2023-01-11T10:40:52.323Z,9.18
2023-01-11T10:41:52.322Z,9.17
2023-01-11T10:42:52.255Z,9.15
2023-01-11T10:43:52.230Z,9.10
2023-01-11T10:44:52.227Z,9.05
2023-01-11T10:45:52.241Z,9.11
2023-01-11T10:46:52.224Z,9.10
2023-01-11T10:47:52.161Z,9.04
2023-01-11T10:48:52.200Z,9.05
2023-01-11T10:49:52.151Z,9.05
2023-01-11T10:50:52.264Z,9.05
2023-01-11T10:51:52.178Z,9.08
2023-01-11T10:52:52.177Z,9.08
2023-01-11T10:53:52.106Z,9.05
2023-01-11T10:54:52.164Z,9.08
2023-01-11T10:55:52.084Z,9.05
2023-01-11T10:57:03.539Z,9.08
2023-01-11T10:58:01.694Z,9.05
2023-01-11T10:58:52.096Z,9.08
2023-01-11T10:59:52.031Z,9.08
2023-01-11T11:00:52.186Z,9.08
2023-01-11T11:01:52.029Z,9.08
2023-01-11T11:02:52.019Z,9.05
2023-01-11T11:03:52.001Z,9.10
2023-01-11T11:04:51.995Z,9.10
2023-01-11T11:05:51.984Z,9.11
2023-01-11T11:06:51.976Z,9.13
2023-01-11T11:07:51.965Z,9.14
2023-01-11T11:08:51.959Z,9.15
2023-01-11T11:09:51.925Z,9.13
2023-01-11T11:10:51.972Z,9.13
2023-01-11T11:11:51.899Z,9.11
2023-01-11T11:12:51.932Z,9.13
2023-01-11T11:13:51.886Z,9.11
2023-01-11T11:14:51.883Z,9.11
2023-01-11T11:15:53.108Z,9.08
2023-01-11T11:16:51.868Z,9.05
2023-01-11T11:17:51.840Z,9.02
2023-01-11T11:18:51.870Z,9.01
2023-01-11T11:19:51.816Z,8.98
2023-01-11T11:20:51.944Z,8.92
2023-01-11T11:21:51.953Z,8.87
2023-01-11T11:22:51.821Z,8.81
2023-01-11T11:23:51.790Z,8.79
2023-01-11T11:24:51.774Z,8.74
2023-01-11T11:25:51.785Z,8.70
2023-01-11T11:26:51.771Z,8.68
2023-01-11T11:27:51.772Z,8.63
2023-01-11T11:28:51.718Z,8.59
2023-01-11T11:29:51.739Z,8.58
2023-01-11T11:30:51.708Z,8.55
2023-01-11T11:31:51.752Z,8.50
2023-01-11T11:32:51.679Z,8.48
2023-01-11T11:33:51.692Z,8.47
2023-01-11T11:34:51.676Z,8.43
2023-01-11T11:35:51.677Z,8.40
2023-01-11T11:36:51.645Z,8.40
2023-01-11T11:37:51.668Z,8.38
2023-01-11T11:38:51.616Z,8.37
2023-01-11T11:39:51.616Z,8.36
2023-01-11T11:40:51.603Z,8.34
2023-01-11T11:41:51.614Z,8.36
2023-01-11T11:42:51.573Z,8.33
2023-01-11T11:43:51.610Z,8.36
2023-01-11T11:44:51.555Z,8.34
2023-01-11T11:45:51.661Z,8.33
2023-01-11T11:46:51.521Z,8.34
2023-01-11T11:47:51.546Z,8.34
2023-01-11T11:48:51.500Z,8.33
2023-01-11T11:49:51.523Z,8.34
2023-01-11T11:50:51.479Z,8.30
2023-01-11T11:51:51.545Z,8.30
2023-01-11T11:52:51.459Z,8.33
2023-01-11T11:53:51.483Z,8.34
2023-01-11T11:54:51.442Z,8.34
2023-01-11T11:55:51.502Z,8.34
2023-01-11T11:56:51.423Z,8.33
2023-01-11T11:57:51.439Z,8.33
2023-01-11T11:58:51.401Z,8.33
2023-01-11T11:59:51.414Z,8.33
2023-01-11T12:00:51.402Z,8.29
2023-01-11T12:01:51.464Z,8.29
2023-01-11T12:02:51.356Z,8.29
2023-01-11T12:03:51.371Z,8.29
2023-01-11T12:04:51.388Z,8.29
2023-01-11T12:05:51.351Z,8.29
2023-01-11T12:06:51.312Z,8.33
2023-01-11T12:07:55.051Z,8.33
2023-01-11T12:08:51.298Z,8.34
2023-01-11T12:09:51.315Z,8.34
2023-01-11T12:10:51.301Z,8.34
2023-01-11T12:11:51.272Z,8.37
2023-01-11T12:12:51.263Z,8.36
2023-01-11T12:13:51.244Z,8.37
2023-01-11T12:14:51.222Z,8.40
2023-01-11T12:15:51.238Z,8.41
2023-01-11T12:16:51.281Z,8.41
2023-01-11T12:17:51.216Z,8.44
2023-01-11T12:18:51.177Z,8.44
2023-01-11T12:19:51.183Z,8.47
2023-01-11T12:20:51.167Z,8.47
2023-01-11T12:21:51.200Z,8.45
2023-01-11T12:22:51.158Z,8.45
2023-01-11T12:23:51.138Z,8.45
2023-01-11T12:24:51.116Z,8.45
2023-01-11T12:25:51.142Z,8.45
2023-01-11T12:26:51.157Z,8.44
2023-01-11T12:27:51.110Z,8.44
2023-01-11T12:28:51.081Z,8.43
2023-01-11T12:29:51.122Z,8.41
2023-01-11T12:30:51.109Z,8.43
2023-01-11T12:31:51.059Z,8.43
2023-01-11T12:32:51.050Z,8.41
2023-01-11T12:33:51.065Z,8.40
2023-01-11T12:34:51.005Z,8.38
2023-01-11T12:35:51.055Z,8.38
2023-01-11T12:36:50.998Z,8.38
2023-01-11T12:37:50.996Z,8.38
2023-01-11T12:38:50.998Z,8.37
2023-01-11T12:39:50.997Z,8.37
2023-01-11T12:40:50.940Z,8.37
2023-01-11T12:41:50.953Z,8.37
2023-01-11T12:42:50.928Z,8.38
2023-01-11T12:43:50.939Z,8.37
2023-01-11T12:44:50.943Z,8.37
2023-01-11T12:45:51.043Z,8.34
2023-01-11T12:46:50.882Z,8.34
2023-01-11T12:47:50.885Z,8.34
2023-01-11T12:48:50.856Z,8.30
2023-01-11T12:49:50.867Z,8.29
2023-01-11T12:50:50.847Z,8.28
2023-01-11T12:51:50.865Z,8.28
2023-01-11T12:52:50.803Z,8.25
2023-01-11T12:53:50.827Z,8.26
2023-01-11T12:54:50.794Z,8.23
2023-01-11T12:55:50.805Z,8.25
2023-01-11T12:56:50.774Z,8.26
2023-01-11T12:57:50.783Z,8.25
2023-01-11T12:58:50.767Z,8.23
2023-01-11T12:59:50.755Z,8.22
2023-01-11T13:00:50.725Z,8.23
2023-01-11T13:01:50.809Z,8.22
2023-01-11T13:02:50.806Z,8.22
2023-01-11T13:03:50.726Z,8.19
2023-01-11T13:04:50.679Z,8.19
2023-01-11T13:05:50.701Z,8.18
2023-01-11T13:06:50.671Z,8.18
2023-01-11T13:07:50.675Z,8.18
2023-01-11T13:08:50.646Z,8.19
2023-01-11T13:09:50.656Z,8.18
2023-01-11T13:10:50.656Z,8.15
2023-01-11T13:11:50.635Z,8.15
2023-01-11T13:12:50.605Z,8.15
2023-01-11T13:13:50.624Z,8.15
2023-01-11T13:14:50.595Z,8.12
2023-01-11T13:15:50.591Z,8.15
2023-01-11T13:16:50.574Z,8.15
2023-01-11T13:17:50.586Z,8.16
2023-01-11T13:18:50.534Z,8.16
2023-01-11T13:19:50.537Z,8.15
2023-01-11T13:21:00.792Z,8.12
2023-01-11T13:21:50.520Z,8.11
2023-01-11T13:22:50.501Z,8.10
2023-01-11T13:23:50.514Z,8.12
2023-01-11T13:24:50.475Z,8.12
2023-01-11T13:25:50.500Z,8.15
2023-01-11T13:26:50.825Z,8.15